sensor_id;sensor_type;location;lat;lon;timestamp;P1;durP1;ratioP1;P2;durP2;ratioP2
51692;SDS011;37777;53.066;21.638;2024-03-23T00:57:53;47.25;;;28.88;;
51692;SDS011;37777;53.066;21.638;2024-03-23T01:04:53;47.67;;;30.27;;
51692;SDS011;37777;53.066;21.638;2024-03-23T01:11:54;47.87;;;32.90;;
51692;SDS011;37777;53.066;21.638;2024-03-23T01:18:54;36.40;;;27.80;;
51692;SDS011;37777;53.066;21.638;2024-03-23T01:25:55;43.63;;;31.63;;
51692;SDS011;37777;53.066;21.638;2024-03-23T01:32:56;43.95;;;29.75;;
51692;SDS011;37777;53.066;21.638;2024-03-23T01:39:56;46.83;;;29.27;;
51692;SDS011;37777;53.066;21.638;2024-03-23T01:46:57;40.63;;;26.13;;
51692;SDS011;37777;53.066;21.638;2024-03-23T01:53:57;42.57;;;26.30;;
51692;SDS011;37777;53.066;21.638;2024-03-23T02:01:01;34.55;;;26.77;;
51692;SDS011;37777;53.066;21.638;2024-03-23T02:08:01;31.73;;;22.37;;
51692;SDS011;37777;53.066;21.638;2024-03-23T02:15:02;33.70;;;23.10;;
51692;SDS011;37777;53.066;21.638;2024-03-23T02:22:03;40.28;;;23.73;;
51692;SDS011;37777;53.066;21.638;2024-03-23T02:37:43;35.10;;;24.10;;
51692;SDS011;37777;53.066;21.638;2024-03-23T02:44:44;31.65;;;21.42;;
51692;SDS011;37777;53.066;21.638;2024-03-23T02:51:45;25.85;;;21.42;;
51692;SDS011;37777;53.066;21.638;2024-03-23T02:58:48;33.45;;;21.20;;
51692;SDS011;37777;53.066;21.638;2024-03-23T03:05:54;31.07;;;21.73;;
51692;SDS011;37777;53.066;21.638;2024-03-23T03:12:55;35.35;;;22.50;;
51692;SDS011;37777;53.066;21.638;2024-03-23T03:19:55;22.97;;;19.47;;
51692;SDS011;37777;53.066;21.638;2024-03-23T03:26:56;27.90;;;19.92;;
51692;SDS011;37777;53.066;21.638;2024-03-23T03:33:58;32.03;;;18.42;;
51692;SDS011;37777;53.066;21.638;2024-03-23T03:40:59;25.13;;;18.07;;
51692;SDS011;37777;53.066;21.638;2024-03-23T03:47:59;24.47;;;17.70;;
51692;SDS011;37777;53.066;21.638;2024-03-23T03:55:03;29.87;;;21.53;;
51692;SDS011;37777;53.066;21.638;2024-03-23T04:02:03;31.98;;;21.85;;
51692;SDS011;37777;53.066;21.638;2024-03-23T04:09:04;32.97;;;22.70;;
51692;SDS011;37777;53.066;21.638;2024-03-23T04:16:04;30.77;;;20.90;;
51692;SDS011;37777;53.066;21.638;2024-03-23T04:23:05;27.23;;;18.95;;
51692;SDS011;37777;53.066;21.638;2024-03-23T04:30:06;25.17;;;17.83;;
51692;SDS011;37777;53.066;21.638;2024-03-23T04:37:11;26.08;;;19.27;;
51692;SDS011;37777;53.066;21.638;2024-03-23T04:44:11;25.75;;;18.35;;
51692;SDS011;37777;53.066;21.638;2024-03-23T05:07:56;30.08;;;21.05;;
51692;SDS011;37777;53.066;21.638;2024-03-23T05:14:57;29.07;;;20.33;;
51692;SDS011;37777;53.066;21.638;2024-03-23T05:21:58;23.67;;;17.33;;
51692;SDS011;37777;53.066;21.638;2024-03-23T05:28:59;23.23;;;16.73;;
51692;SDS011;37777;53.066;21.638;2024-03-23T05:36:00;30.83;;;20.73;;
51692;SDS011;37777;53.066;21.638;2024-03-23T05:43:01;26.88;;;19.85;;
51692;SDS011;37777;53.066;21.638;2024-03-23T05:50:02;23.70;;;18.67;;
51692;SDS011;37777;53.066;21.638;2024-03-23T05:57:03;35.25;;;22.20;;
51692;SDS011;37777;53.066;21.638;2024-03-23T06:04:03;36.88;;;21.80;;
51692;SDS011;37777;53.066;21.638;2024-03-23T06:11:04;36.30;;;21.58;;
51692;SDS011;37777;53.066;21.638;2024-03-23T06:18:07;27.13;;;21.35;;
51692;SDS011;37777;53.066;21.638;2024-03-23T06:25:08;30.00;;;25.57;;
51692;SDS011;37777;53.066;21.638;2024-03-23T06:40:31;23.90;;;21.38;;
51692;SDS011;37777;53.066;21.638;2024-03-23T06:47:32;23.23;;;20.80;;
51692;SDS011;37777;53.066;21.638;2024-03-23T06:54:32;22.05;;;19.33;;
51692;SDS011;37777;53.066;21.638;2024-03-23T07:01:33;23.00;;;20.67;;
51692;SDS011;37777;53.066;21.638;2024-03-23T07:08:34;36.45;;;23.60;;
51692;SDS011;37777;53.066;21.638;2024-03-23T07:15:35;28.27;;;21.93;;
51692;SDS011;37777;53.066;21.638;2024-03-23T07:22:35;27.27;;;24.48;;
51692;SDS011;37777;53.066;21.638;2024-03-23T07:29:36;26.63;;;23.92;;
51692;SDS011;37777;53.066;21.638;2024-03-23T07:36:36;29.85;;;26.75;;
51692;SDS011;37777;53.066;21.638;2024-03-23T07:43:37;32.10;;;29.20;;
51692;SDS011;37777;53.066;21.638;2024-03-23T07:50:38;27.67;;;24.80;;
51692;SDS011;37777;53.066;21.638;2024-03-23T07:57:39;26.47;;;23.70;;
51692;SDS011;37777;53.066;21.638;2024-03-23T08:04:40;26.60;;;24.05;;
51692;SDS011;37777;53.066;21.638;2024-03-23T08:11:40;25.70;;;23.08;;
51692;SDS011;37777;53.066;21.638;2024-03-23T08:18:41;24.83;;;22.33;;
51692;SDS011;37777;53.066;21.638;2024-03-23T08:25:42;25.33;;;23.05;;
51692;SDS011;37777;53.066;21.638;2024-03-23T08:32:42;26.93;;;24.43;;
51692;SDS011;37777;53.066;21.638;2024-03-23T08:39:43;25.50;;;23.20;;
51692;SDS011;37777;53.066;21.638;2024-03-23T08:46:44;26.40;;;23.63;;
51692;SDS011;37777;53.066;21.638;2024-03-23T08:53:44;27.87;;;25.03;;
51692;SDS011;37777;53.066;21.638;2024-03-23T09:09:19;35.50;;;31.83;;
51692;SDS011;37777;53.066;21.638;2024-03-23T09:16:20;34.97;;;31.73;;
51692;SDS011;37777;53.066;21.638;2024-03-23T09:23:21;30.97;;;28.10;;
51692;SDS011;37777;53.066;21.638;2024-03-23T09:30:21;31.35;;;28.17;;
51692;SDS011;37777;53.066;21.638;2024-03-23T09:37:22;30.27;;;27.13;;
51692;SDS011;37777;53.066;21.638;2024-03-23T09:44:22;34.33;;;29.27;;
51692;SDS011;37777;53.066;21.638;2024-03-23T09:51:26;32.53;;;28.98;;
51692;SDS011;37777;53.066;21.638;2024-03-23T09:58:26;34.20;;;30.70;;
51692;SDS011;37777;53.066;21.638;2024-03-23T10:05:27;33.80;;;30.43;;
51692;SDS011;37777;53.066;21.638;2024-03-23T10:12:39;33.80;;;30.38;;
51692;SDS011;37777;53.066;21.638;2024-03-23T10:19:46;30.10;;;27.00;;
51692;SDS011;37777;53.066;21.638;2024-03-23T10:26:55;33.75;;;30.27;;
51692;SDS011;37777;53.066;21.638;2024-03-23T10:33:57;33.28;;;29.77;;
51692;SDS011;37777;53.066;21.638;2024-03-23T10:49:39;29.63;;;26.58;;
51692;SDS011;37777;53.066;21.638;2024-03-23T10:56:39;28.63;;;25.88;;
51692;SDS011;37777;53.066;21.638;2024-03-23T11:03:45;28.95;;;26.25;;
51692;SDS011;37777;53.066;21.638;2024-03-23T11:26:38;30.50;;;27.52;;
51692;SDS011;37777;53.066;21.638;2024-03-23T11:33:39;31.65;;;28.27;;
51692;SDS011;37777;53.066;21.638;2024-03-23T11:40:43;35.87;;;32.13;;
51692;SDS011;37777;53.066;21.638;2024-03-23T11:47:45;34.05;;;30.42;;
51692;SDS011;37777;53.066;21.638;2024-03-23T11:54:46;38.47;;;29.60;;
51692;SDS011;37777;53.066;21.638;2024-03-23T12:01:46;38.73;;;28.53;;
51692;SDS011;37777;53.066;21.638;2024-03-23T12:08:53;43.70;;;29.27;;
51692;SDS011;37777;53.066;21.638;2024-03-23T12:15:53;42.38;;;29.50;;
51692;SDS011;37777;53.066;21.638;2024-03-23T12:31:16;48.13;;;26.77;;
51692;SDS011;37777;53.066;21.638;2024-03-23T12:38:16;42.60;;;26.43;;
51692;SDS011;37777;53.066;21.638;2024-03-23T12:45:17;44.85;;;27.55;;
51692;SDS011;37777;53.066;21.638;2024-03-23T12:52:21;46.65;;;28.70;;
51692;SDS011;37777;53.066;21.638;2024-03-23T12:59:25;36.25;;;23.48;;
51692;SDS011;37777;53.066;21.638;2024-03-23T13:06:25;41.10;;;25.53;;
51692;SDS011;37777;53.066;21.638;2024-03-23T13:13:27;42.90;;;25.50;;
51692;SDS011;37777;53.066;21.638;2024-03-23T13:28:50;41.72;;;25.80;;
51692;SDS011;37777;53.066;21.638;2024-03-23T13:35:51;43.23;;;27.70;;
51692;SDS011;37777;53.066;21.638;2024-03-23T13:42:59;45.53;;;27.13;;
51692;SDS011;37777;53.066;21.638;2024-03-23T13:58:34;44.47;;;27.60;;
51692;SDS011;37777;53.066;21.638;2024-03-23T14:05:35;49.13;;;29.25;;
51692;SDS011;37777;53.066;21.638;2024-03-23T14:12:36;46.03;;;27.80;;
51692;SDS011;37777;53.066;21.638;2024-03-23T14:19:38;46.55;;;29.75;;
51692;SDS011;37777;53.066;21.638;2024-03-23T14:26:38;45.17;;;30.87;;
51692;SDS011;37777;53.066;21.638;2024-03-23T14:33:39;46.25;;;28.98;;
51692;SDS011;37777;53.066;21.638;2024-03-23T14:40:46;51.83;;;32.90;;
51692;SDS011;37777;53.066;21.638;2024-03-23T14:47:47;50.47;;;31.90;;
51692;SDS011;37777;53.066;21.638;2024-03-23T14:54:48;58.45;;;33.33;;
51692;SDS011;37777;53.066;21.638;2024-03-23T15:01:48;51.05;;;33.70;;
51692;SDS011;37777;53.066;21.638;2024-03-23T15:08:49;50.23;;;34.30;;
51692;SDS011;37777;53.066;21.638;2024-03-23T15:15:49;41.78;;;31.67;;
51692;SDS011;37777;53.066;21.638;2024-03-23T15:22:51;47.50;;;33.70;;
51692;SDS011;37777;53.066;21.638;2024-03-23T15:29:52;39.83;;;32.50;;
51692;SDS011;37777;53.066;21.638;2024-03-23T15:36:52;42.13;;;31.13;;
51692;SDS011;37777;53.066;21.638;2024-03-23T15:43:53;47.90;;;32.38;;
51692;SDS011;37777;53.066;21.638;2024-03-23T15:50:54;43.97;;;33.83;;
51692;SDS011;37777;53.066;21.638;2024-03-23T15:57:55;42.70;;;31.92;;
51692;SDS011;37777;53.066;21.638;2024-03-23T16:04:56;45.37;;;34.80;;
51692;SDS011;37777;53.066;21.638;2024-03-23T16:11:58;44.58;;;34.78;;
51692;SDS011;37777;53.066;21.638;2024-03-23T16:18:58;43.50;;;35.03;;
51692;SDS011;37777;53.066;21.638;2024-03-23T16:25:59;44.80;;;35.40;;
51692;SDS011;37777;53.066;21.638;2024-03-23T16:41:23;38.53;;;34.50;;
51692;SDS011;37777;53.066;21.638;2024-03-23T16:48:24;42.45;;;37.60;;
51692;SDS011;37777;53.066;21.638;2024-03-23T16:55:25;41.80;;;37.10;;
51692;SDS011;37777;53.066;21.638;2024-03-23T17:02:25;47.03;;;37.50;;
51692;SDS011;37777;53.066;21.638;2024-03-23T17:17:54;47.58;;;38.92;;
51692;SDS011;37777;53.066;21.638;2024-03-23T17:24:55;47.83;;;36.70;;
51692;SDS011;37777;53.066;21.638;2024-03-23T17:31:55;51.17;;;41.17;;
51692;SDS011;37777;53.066;21.638;2024-03-23T17:38:56;54.35;;;40.90;;
51692;SDS011;37777;53.066;21.638;2024-03-23T17:45:57;48.40;;;42.78;;
51692;SDS011;37777;53.066;21.638;2024-03-23T17:53:01;48.45;;;40.80;;
51692;SDS011;37777;53.066;21.638;2024-03-23T18:00:01;38.97;;;34.92;;
51692;SDS011;37777;53.066;21.638;2024-03-23T18:07:07;41.80;;;37.33;;
51692;SDS011;37777;53.066;21.638;2024-03-23T18:14:08;40.05;;;35.22;;
51692;SDS011;37777;53.066;21.638;2024-03-23T18:29:31;41.65;;;32.63;;
51692;SDS011;37777;53.066;21.638;2024-03-23T18:36:32;35.22;;;32.15;;
51692;SDS011;37777;53.066;21.638;2024-03-23T18:43:33;33.83;;;31.30;;
51692;SDS011;37777;53.066;21.638;2024-03-23T18:50:34;32.72;;;30.58;;
51692;SDS011;37777;53.066;21.638;2024-03-23T18:57:35;25.65;;;23.92;;
51692;SDS011;37777;53.066;21.638;2024-03-23T19:04:35;26.83;;;25.13;;
51692;SDS011;37777;53.066;21.638;2024-03-23T19:11:35;23.60;;;22.10;;
51692;SDS011;37777;53.066;21.638;2024-03-23T19:18:37;25.77;;;24.23;;
51692;SDS011;37777;53.066;21.638;2024-03-23T19:25:37;32.97;;;31.03;;
51692;SDS011;37777;53.066;21.638;2024-03-23T19:32:38;28.75;;;27.00;;
51692;SDS011;37777;53.066;21.638;2024-03-23T19:39:39;28.55;;;26.75;;
51692;SDS011;37777;53.066;21.638;2024-03-23T19:46:43;35.35;;;33.20;;
51692;SDS011;37777;53.066;21.638;2024-03-23T19:53:44;37.00;;;34.70;;
51692;SDS011;37777;53.066;21.638;2024-03-23T20:00:44;39.70;;;37.23;;
51692;SDS011;37777;53.066;21.638;2024-03-23T20:07:45;47.73;;;44.73;;
51692;SDS011;37777;53.066;21.638;2024-03-23T20:14:45;40.17;;;37.77;;
51692;SDS011;37777;53.066;21.638;2024-03-23T20:21:46;41.80;;;39.25;;
51692;SDS011;37777;53.066;21.638;2024-03-23T20:28:46;37.05;;;34.85;;
51692;SDS011;37777;53.066;21.638;2024-03-23T20:35:47;31.80;;;29.85;;
51692;SDS011;37777;53.066;21.638;2024-03-23T20:42:51;26.25;;;24.65;;
51692;SDS011;37777;53.066;21.638;2024-03-23T20:49:51;26.42;;;24.83;;
51692;SDS011;37777;53.066;21.638;2024-03-23T20:56:52;25.80;;;24.20;;
51692;SDS011;37777;53.066;21.638;2024-03-23T21:03:55;30.97;;;28.80;;
51692;SDS011;37777;53.066;21.638;2024-03-23T21:19:20;51.78;;;48.50;;
51692;SDS011;37777;53.066;21.638;2024-03-23T21:26:20;45.47;;;42.40;;
51692;SDS011;37777;53.066;21.638;2024-03-23T21:33:27;49.58;;;46.35;;
51692;SDS011;37777;53.066;21.638;2024-03-23T21:40:28;39.33;;;36.92;;
51692;SDS011;37777;53.066;21.638;2024-03-23T21:47:28;29.80;;;27.90;;
51692;SDS011;37777;53.066;21.638;2024-03-23T21:54:29;39.33;;;36.37;;
51692;SDS011;37777;53.066;21.638;2024-03-23T22:01:29;33.95;;;31.83;;
51692;SDS011;37777;53.066;21.638;2024-03-23T22:08:30;37.22;;;34.85;;
51692;SDS011;37777;53.066;21.638;2024-03-23T22:15:30;40.17;;;37.40;;
51692;SDS011;37777;53.066;21.638;2024-03-23T22:22:31;39.55;;;37.03;;
51692;SDS011;37777;53.066;21.638;2024-03-23T22:37:54;37.85;;;35.50;;
51692;SDS011;37777;53.066;21.638;2024-03-23T22:44:54;38.38;;;35.70;;
51692;SDS011;37777;53.066;21.638;2024-03-23T22:51:55;37.17;;;34.63;;
51692;SDS011;37777;53.066;21.638;2024-03-23T22:58:55;33.43;;;31.07;;
51692;SDS011;37777;53.066;21.638;2024-03-23T23:06:02;27.10;;;25.50;;
51692;SDS011;37777;53.066;21.638;2024-03-23T23:13:08;27.90;;;25.85;;
51692;SDS011;37777;53.066;21.638;2024-03-23T23:20:09;25.43;;;23.10;;
51692;SDS011;37777;53.066;21.638;2024-03-23T23:27:10;24.08;;;22.20;;
51692;SDS011;37777;53.066;21.638;2024-03-23T23:34:11;21.80;;;20.30;;
51692;SDS011;37777;53.066;21.638;2024-03-23T23:49:34;29.40;;;26.75;;
51692;SDS011;37777;53.066;21.638;2024-03-23T23:56:34;30.83;;;28.50;;
